createdAt,value
2023-03-01T08:20:30.268Z,2.80
2023-03-01T08:36:33.688Z,3.00
2023-03-01T08:41:27.989Z,3.20
2023-03-01T09:12:39.324Z,3.30
2023-03-01T09:17:32.824Z,3.40
2023-03-01T09:22:26.472Z,3.60
2023-03-01T09:27:20.086Z,3.90
2023-03-01T09:32:15.108Z,4.00
2023-03-01T09:37:08.818Z,4.00
2023-03-01T09:42:06.081Z,4.20
2023-03-01T09:47:00.545Z,4.20
2023-03-01T09:52:02.389Z,4.30
2023-03-01T09:57:12.320Z,4.50
2023-03-01T10:02:23.434Z,4.50
2023-03-01T10:07:29.984Z,4.50
2023-03-01T10:12:27.987Z,4.40
2023-03-01T10:17:29.900Z,4.40
2023-03-01T10:22:31.391Z,4.50
2023-03-01T10:27:27.137Z,4.50
2023-03-01T10:32:25.021Z,4.40
2023-03-01T10:37:22.089Z,4.40
2023-03-01T10:42:29.394Z,4.40
2023-03-01T11:39:30.332Z,4.10
2023-03-01T11:44:28.163Z,4.10
2023-03-01T11:49:48.836Z,4.30
2023-03-01T11:54:57.650Z,4.50
2023-03-01T12:13:01.733Z,4.50
2023-03-01T12:24:24.983Z,4.40
2023-03-01T12:29:28.214Z,4.60
2023-03-01T12:34:50.769Z,4.90
2023-03-01T12:39:58.991Z,5.10
2023-03-01T12:45:18.840Z,5.00
2023-03-01T12:50:19.983Z,5.20
2023-03-01T12:55:26.891Z,5.20
2023-03-01T13:00:33.161Z,5.30
2023-03-01T13:05:37.735Z,5.20
2023-03-01T13:10:45.039Z,5.20
2023-03-01T13:15:43.290Z,5.50
2023-03-01T13:20:49.196Z,5.60
2023-03-01T13:26:18.696Z,5.60
2023-03-01T13:32:15.057Z,5.70
2023-03-01T13:37:20.579Z,5.60
